sensor_id;sensor_type;location;lat;lon;timestamp;pressure;altitude;pressure_sealevel;temperature;humidity
55990;BME280;41875;55.806;38.082;2023-02-18T00:00:12;99460.97;;;-8.39;63.42
55990;BME280;41875;55.806;38.082;2023-02-18T00:02:41;99459.47;;;-8.79;64.01
55990;BME280;41875;55.806;38.082;2023-02-18T00:05:09;99446.19;;;-8.61;63.60
55990;BME280;41875;55.806;38.082;2023-02-18T00:07:39;99451.72;;;-8.45;63.13
55990;BME280;41875;55.806;38.082;2023-02-18T00:10:11;99450.00;;;-8.44;62.50
55990;BME280;41875;55.806;38.082;2023-02-18T00:12:39;99448.28;;;-8.77;63.53
55990;BME280;41875;55.806;38.082;2023-02-18T00:15:10;99447.88;;;-8.60;63.30
55990;BME280;41875;55.806;38.082;2023-02-18T00:17:38;99438.91;;;-8.46;62.88
55990;BME280;41875;55.806;38.082;2023-02-18T00:20:07;99445.16;;;-8.55;62.84
55990;BME280;41875;55.806;38.082;2023-02-18T00:22:36;99440.81;;;-8.86;63.63
55990;BME280;41875;55.806;38.082;2023-02-18T00:25:05;99431.44;;;-8.87;63.50
55990;BME280;41875;55.806;38.082;2023-02-18T00:27:33;99423.09;;;-8.95;64.06
55990;BME280;41875;55.806;38.082;2023-02-18T00:30:02;99432.63;;;-9.00;63.58
55990;BME280;41875;55.806;38.082;2023-02-18T00:32:35;99426.22;;;-9.19;64.43
55990;BME280;41875;55.806;38.082;2023-02-18T00:35:03;99424.28;;;-9.10;64.13
55990;BME280;41875;55.806;38.082;2023-02-18T00:37:33;99420.09;;;-9.13;64.36
55990;BME280;41875;55.806;38.082;2023-02-18T00:40:02;99433.88;;;-9.17;64.24
55990;BME280;41875;55.806;38.082;2023-02-18T00:42:31;99428.38;;;-9.01;63.37
55990;BME280;41875;55.806;38.082;2023-02-18T00:44:59;99421.41;;;-8.98;62.94
55990;BME280;41875;55.806;38.082;2023-02-18T00:47:29;99424.41;;;-9.15;62.67
55990;BME280;41875;55.806;38.082;2023-02-18T00:50:00;99419.00;;;-9.40;62.62
55990;BME280;41875;55.806;38.082;2023-02-18T00:52:29;99413.69;;;-9.70;62.79
55990;BME280;41875;55.806;38.082;2023-02-18T00:54:59;99411.53;;;-9.89;62.16
55990;BME280;41875;55.806;38.082;2023-02-18T00:57:28;99420.03;;;-9.85;62.98
55990;BME280;41875;55.806;38.082;2023-02-18T00:59:57;99403.91;;;-9.53;61.99
55990;BME280;41875;55.806;38.082;2023-02-18T01:02:25;99388.75;;;-9.62;61.93
55990;BME280;41875;55.806;38.082;2023-02-18T01:04:54;99406.31;;;-9.45;61.98
55990;BME280;41875;55.806;38.082;2023-02-18T01:07:24;99405.56;;;-9.50;61.45
55990;BME280;41875;55.806;38.082;2023-02-18T01:09:52;99396.16;;;-9.50;61.47
55990;BME280;41875;55.806;38.082;2023-02-18T01:12:21;99389.50;;;-9.22;61.24
55990;BME280;41875;55.806;38.082;2023-02-18T01:14:49;99391.53;;;-9.35;61.62
55990;BME280;41875;55.806;38.082;2023-02-18T01:17:18;99387.28;;;-9.36;61.46
55990;BME280;41875;55.806;38.082;2023-02-18T01:19:46;99387.34;;;-9.38;62.18
55990;BME280;41875;55.806;38.082;2023-02-18T01:22:15;99385.50;;;-9.32;62.39
55990;BME280;41875;55.806;38.082;2023-02-18T01:24:45;99379.78;;;-9.44;62.39
55990;BME280;41875;55.806;38.082;2023-02-18T01:27:13;99371.53;;;-9.57;63.45
55990;BME280;41875;55.806;38.082;2023-02-18T01:29:41;99365.97;;;-9.76;64.87
55990;BME280;41875;55.806;38.082;2023-02-18T01:32:10;99358.00;;;-9.63;63.88
55990;BME280;41875;55.806;38.082;2023-02-18T01:34:40;99361.25;;;-9.55;63.51
55990;BME280;41875;55.806;38.082;2023-02-18T01:37:08;99346.88;;;-10.00;64.55
55990;BME280;41875;55.806;38.082;2023-02-18T01:39:37;99341.91;;;-9.69;63.75
55990;BME280;41875;55.806;38.082;2023-02-18T01:42:17;99337.00;;;-9.43;62.47
55990;BME280;41875;55.806;38.082;2023-02-18T01:44:46;99341.81;;;-9.66;63.31
55990;BME280;41875;55.806;38.082;2023-02-18T01:47:16;99337.94;;;-9.46;63.18
55990;BME280;41875;55.806;38.082;2023-02-18T01:49:47;99333.66;;;-9.45;62.58
55990;BME280;41875;55.806;38.082;2023-02-18T01:52:20;99327.75;;;-9.49;63.10
55990;BME280;41875;55.806;38.082;2023-02-18T01:54:53;99323.78;;;-9.61;62.96
55990;BME280;41875;55.806;38.082;2023-02-18T01:57:28;99322.97;;;-9.28;62.38
55990;BME280;41875;55.806;38.082;2023-02-18T01:59:59;99315.66;;;-9.44;62.34
55990;BME280;41875;55.806;38.082;2023-02-18T02:02:34;99314.91;;;-9.49;62.06
55990;BME280;41875;55.806;38.082;2023-02-18T02:05:04;99306.41;;;-9.51;62.20
55990;BME280;41875;55.806;38.082;2023-02-18T02:07:36;99312.22;;;-9.44;61.75
55990;BME280;41875;55.806;38.082;2023-02-18T02:10:06;99306.31;;;-9.46;61.72
55990;BME280;41875;55.806;38.082;2023-02-18T02:12:44;99297.78;;;-9.47;61.71
55990;BME280;41875;55.806;38.082;2023-02-18T02:15:32;99292.66;;;-9.47;61.66
55990;BME280;41875;55.806;38.082;2023-02-18T02:18:16;99292.03;;;-9.57;61.85
55990;BME280;41875;55.806;38.082;2023-02-18T02:21:15;99290.25;;;-9.53;61.65
55990;BME280;41875;55.806;38.082;2023-02-18T02:27:14;99273.00;;;-9.46;62.16
55990;BME280;41875;55.806;38.082;2023-02-18T02:35:55;99269.97;;;-9.29;61.45
55990;BME280;41875;55.806;38.082;2023-02-18T02:38:31;99265.81;;;-9.34;61.00
55990;BME280;41875;55.806;38.082;2023-02-18T02:41:12;99261.03;;;-9.47;61.50
55990;BME280;41875;55.806;38.082;2023-02-18T02:43:52;99260.03;;;-9.42;61.81
55990;BME280;41875;55.806;38.082;2023-02-18T02:46:27;99267.13;;;-9.52;62.51
55990;BME280;41875;55.806;38.082;2023-02-18T02:49:01;99265.50;;;-9.56;63.20
55990;BME280;41875;55.806;38.082;2023-02-18T02:51:38;99255.50;;;-9.65;63.29
55990;BME280;41875;55.806;38.082;2023-02-18T02:54:12;99255.94;;;-9.84;63.55
55990;BME280;41875;55.806;38.082;2023-02-18T02:56:41;99258.34;;;-9.43;63.19
55990;BME280;41875;55.806;38.082;2023-02-18T02:59:13;99260.66;;;-9.32;62.28
55990;BME280;41875;55.806;38.082;2023-02-18T03:01:55;99255.88;;;-9.46;62.98
55990;BME280;41875;55.806;38.082;2023-02-18T03:04:50;99260.78;;;-9.05;62.25
55990;BME280;41875;55.806;38.082;2023-02-18T03:10:33;99237.06;;;-8.82;61.59
55990;BME280;41875;55.806;38.082;2023-02-18T03:13:10;99233.72;;;-8.85;61.29
55990;BME280;41875;55.806;38.082;2023-02-18T03:15:48;99238.28;;;-8.65;61.16
55990;BME280;41875;55.806;38.082;2023-02-18T03:18:25;99228.38;;;-8.78;61.65
55990;BME280;41875;55.806;38.082;2023-02-18T03:20:57;99238.31;;;-8.67;61.33
55990;BME280;41875;55.806;38.082;2023-02-18T03:23:31;99222.97;;;-8.68;61.42
55990;BME280;41875;55.806;38.082;2023-02-18T03:26:04;99222.97;;;-8.40;61.40
55990;BME280;41875;55.806;38.082;2023-02-18T03:28:34;99216.91;;;-8.39;60.93
55990;BME280;41875;55.806;38.082;2023-02-18T03:31:06;99209.81;;;-8.31;61.03
55990;BME280;41875;55.806;38.082;2023-02-18T03:33:39;99205.97;;;-8.44;61.29
55990;BME280;41875;55.806;38.082;2023-02-18T03:36:10;99195.34;;;-8.33;61.59
55990;BME280;41875;55.806;38.082;2023-02-18T03:38:43;99192.34;;;-8.19;61.63
55990;BME280;41875;55.806;38.082;2023-02-18T03:41:14;99189.44;;;-8.08;61.27
55990;BME280;41875;55.806;38.082;2023-02-18T03:43:48;99185.81;;;-8.30;61.79
55990;BME280;41875;55.806;38.082;2023-02-18T03:46:17;99180.97;;;-8.12;61.96
55990;BME280;41875;55.806;38.082;2023-02-18T03:48:45;99188.88;;;-7.91;61.63
55990;BME280;41875;55.806;38.082;2023-02-18T03:51:14;99180.34;;;-7.93;61.40
55990;BME280;41875;55.806;38.082;2023-02-18T03:53:42;99183.66;;;-8.15;62.07
55990;BME280;41875;55.806;38.082;2023-02-18T03:56:11;99180.75;;;-8.04;62.37
55990;BME280;41875;55.806;38.082;2023-02-18T03:58:41;99175.28;;;-8.22;63.11
55990;BME280;41875;55.806;38.082;2023-02-18T04:01:10;99160.81;;;-7.98;61.99
55990;BME280;41875;55.806;38.082;2023-02-18T04:03:39;99172.41;;;-8.13;63.01
55990;BME280;41875;55.806;38.082;2023-02-18T04:06:07;99163.00;;;-8.12;63.24
55990;BME280;41875;55.806;38.082;2023-02-18T04:08:36;99166.34;;;-8.10;63.81
55990;BME280;41875;55.806;38.082;2023-02-18T04:11:05;99160.19;;;-7.79;62.15
55990;BME280;41875;55.806;38.082;2023-02-18T04:13:33;99153.00;;;-7.20;61.14
55990;BME280;41875;55.806;38.082;2023-02-18T04:16:03;99150.41;;;-7.44;61.67
55990;BME280;41875;55.806;38.082;2023-02-18T04:18:32;99152.41;;;-7.52;61.62
55990;BME280;41875;55.806;38.082;2023-02-18T04:21:01;99143.53;;;-7.94;62.23
55990;BME280;41875;55.806;38.082;2023-02-18T04:23:32;99138.56;;;-7.73;62.07
55990;BME280;41875;55.806;38.082;2023-02-18T04:26:01;99139.75;;;-7.58;61.97
55990;BME280;41875;55.806;38.082;2023-02-18T04:28:29;99136.25;;;-7.08;60.89
55990;BME280;41875;55.806;38.082;2023-02-18T04:30:58;99132.06;;;-7.35;60.77
55990;BME280;41875;55.806;38.082;2023-02-18T04:33:28;99128.03;;;-7.42;61.38
55990;BME280;41875;55.806;38.082;2023-02-18T04:35:56;99120.75;;;-7.30;61.67
55990;BME280;41875;55.806;38.082;2023-02-18T04:38:25;99108.69;;;-7.28;61.21
55990;BME280;41875;55.806;38.082;2023-02-18T04:40:53;99118.31;;;-7.33;61.89
55990;BME280;41875;55.806;38.082;2023-02-18T04:43:22;99112.38;;;-6.90;60.59
55990;BME280;41875;55.806;38.082;2023-02-18T04:45:50;99106.38;;;-7.12;60.97
55990;BME280;41875;55.806;38.082;2023-02-18T04:48:19;99105.53;;;-6.89;60.95
55990;BME280;41875;55.806;38.082;2023-02-18T04:50:49;99105.22;;;-7.03;60.86
55990;BME280;41875;55.806;38.082;2023-02-18T04:53:17;99102.47;;;-6.77;60.93
55990;BME280;41875;55.806;38.082;2023-02-18T04:55:48;99086.50;;;-7.32;61.32
55990;BME280;41875;55.806;38.082;2023-02-18T04:58:17;99076.03;;;-7.04;61.97
55990;BME280;41875;55.806;38.082;2023-02-18T05:00:46;99082.63;;;-6.97;62.18
55990;BME280;41875;55.806;38.082;2023-02-18T05:03:15;99076.75;;;-7.00;62.50
55990;BME280;41875;55.806;38.082;2023-02-18T05:05:43;99049.75;;;-7.12;61.80
55990;BME280;41875;55.806;38.082;2023-02-18T05:08:14;99065.94;;;-7.10;62.82
55990;BME280;41875;55.806;38.082;2023-02-18T05:10:42;99060.94;;;-7.13;63.10
55990;BME280;41875;55.806;38.082;2023-02-18T05:13:11;99054.91;;;-7.12;63.10
55990;BME280;41875;55.806;38.082;2023-02-18T05:15:40;99062.28;;;-6.38;61.38
55990;BME280;41875;55.806;38.082;2023-02-18T05:18:08;99058.69;;;-6.77;62.90
55990;BME280;41875;55.806;38.082;2023-02-18T05:20:37;99062.78;;;-6.72;62.49
55990;BME280;41875;55.806;38.082;2023-02-18T05:23:06;99039.38;;;-7.11;62.95
55990;BME280;41875;55.806;38.082;2023-02-18T05:25:35;99046.81;;;-6.81;63.49
55990;BME280;41875;55.806;38.082;2023-02-18T05:28:04;99035.91;;;-7.32;65.64
55990;BME280;41875;55.806;38.082;2023-02-18T05:30:32;99034.75;;;-6.80;64.42
55990;BME280;41875;55.806;38.082;2023-02-18T05:33:01;99042.22;;;-6.10;62.69
55990;BME280;41875;55.806;38.082;2023-02-18T05:35:29;99048.38;;;-5.94;61.95
55990;BME280;41875;55.806;38.082;2023-02-18T05:37:58;99034.56;;;-6.12;61.98
55990;BME280;41875;55.806;38.082;2023-02-18T05:40:27;99024.78;;;-6.24;62.02
55990;BME280;41875;55.806;38.082;2023-02-18T05:42:59;99013.69;;;-6.68;62.53
55990;BME280;41875;55.806;38.082;2023-02-18T05:45:28;99015.03;;;-6.59;63.06
55990;BME280;41875;55.806;38.082;2023-02-18T05:47:56;99025.72;;;-6.27;63.02
55990;BME280;41875;55.806;38.082;2023-02-18T05:50:25;99018.06;;;-6.08;62.13
55990;BME280;41875;55.806;38.082;2023-02-18T05:52:53;99011.44;;;-6.14;61.84
55990;BME280;41875;55.806;38.082;2023-02-18T05:55:22;98995.06;;;-6.54;63.29
55990;BME280;41875;55.806;38.082;2023-02-18T05:57:50;99003.47;;;-6.28;62.29
55990;BME280;41875;55.806;38.082;2023-02-18T06:00:20;98989.94;;;-5.95;61.78
55990;BME280;41875;55.806;38.082;2023-02-18T06:02:49;98993.38;;;-6.14;62.49
55990;BME280;41875;55.806;38.082;2023-02-18T06:05:18;98995.19;;;-5.97;62.89
55990;BME280;41875;55.806;38.082;2023-02-18T06:07:47;98984.88;;;-5.97;62.28
55990;BME280;41875;55.806;38.082;2023-02-18T06:10:15;98989.06;;;-6.34;63.50
55990;BME280;41875;55.806;38.082;2023-02-18T06:12:45;98978.19;;;-6.20;64.09
55990;BME280;41875;55.806;38.082;2023-02-18T06:15:13;98976.38;;;-5.79;62.52
55990;BME280;41875;55.806;38.082;2023-02-18T06:17:43;98970.59;;;-5.85;62.45
55990;BME280;41875;55.806;38.082;2023-02-18T06:20:11;98960.84;;;-5.78;61.96
55990;BME280;41875;55.806;38.082;2023-02-18T06:22:40;98966.28;;;-5.46;61.08
55990;BME280;41875;55.806;38.082;2023-02-18T06:25:11;98951.25;;;-5.38;61.50
55990;BME280;41875;55.806;38.082;2023-02-18T06:27:42;98946.03;;;-4.99;60.44
55990;BME280;41875;55.806;38.082;2023-02-18T06:30:11;98960.69;;;-4.82;59.63
55990;BME280;41875;55.806;38.082;2023-02-18T06:32:40;98938.81;;;-6.44;63.17
55990;BME280;41875;55.806;38.082;2023-02-18T06:35:10;98951.22;;;-5.74;62.82
55990;BME280;41875;55.806;38.082;2023-02-18T06:37:38;98940.13;;;-5.76;62.78
55990;BME280;41875;55.806;38.082;2023-02-18T06:40:10;98934.75;;;-5.16;61.23
55990;BME280;41875;55.806;38.082;2023-02-18T06:42:39;98937.81;;;-4.90;60.87
55990;BME280;41875;55.806;38.082;2023-02-18T06:45:10;98944.19;;;-5.15;60.57
55990;BME280;41875;55.806;38.082;2023-02-18T06:47:41;98929.38;;;-4.76;59.66
55990;BME280;41875;55.806;38.082;2023-02-18T06:50:11;98913.53;;;-5.59;62.08
55990;BME280;41875;55.806;38.082;2023-02-18T06:52:39;98907.19;;;-5.52;61.44
55990;BME280;41875;55.806;38.082;2023-02-18T06:55:08;98918.50;;;-5.55;61.58
55990;BME280;41875;55.806;38.082;2023-02-18T06:57:37;98911.34;;;-5.13;61.00
55990;BME280;41875;55.806;38.082;2023-02-18T07:00:06;98916.38;;;-4.75;59.75
55990;BME280;41875;55.806;38.082;2023-02-18T07:02:35;98898.13;;;-5.24;61.21
55990;BME280;41875;55.806;38.082;2023-02-18T07:05:03;98909.31;;;-4.88;60.35
55990;BME280;41875;55.806;38.082;2023-02-18T07:07:33;98903.44;;;-5.10;60.88
55990;BME280;41875;55.806;38.082;2023-02-18T07:10:02;98899.56;;;-5.18;60.69
55990;BME280;41875;55.806;38.082;2023-02-18T07:12:31;98890.88;;;-5.35;60.64
55990;BME280;41875;55.806;38.082;2023-02-18T07:15:04;98888.25;;;-4.81;59.87
55990;BME280;41875;55.806;38.082;2023-02-18T07:17:32;98902.09;;;-4.82;60.23
55990;BME280;41875;55.806;38.082;2023-02-18T07:20:00;98905.31;;;-4.09;58.02
55990;BME280;41875;55.806;38.082;2023-02-18T07:22:29;98885.53;;;-4.10;58.16
55990;BME280;41875;55.806;38.082;2023-02-18T07:25:03;98888.63;;;-3.88;56.99
55990;BME280;41875;55.806;38.082;2023-02-18T07:27:31;98864.06;;;-4.29;57.14
55990;BME280;41875;55.806;38.082;2023-02-18T07:30:00;98873.69;;;-4.15;58.19
55990;BME280;41875;55.806;38.082;2023-02-18T07:32:30;98873.63;;;-3.65;56.75
55990;BME280;41875;55.806;38.082;2023-02-18T07:34:58;98853.69;;;-3.95;56.71
55990;BME280;41875;55.806;38.082;2023-02-18T07:37:28;98858.25;;;-4.00;57.86
55990;BME280;41875;55.806;38.082;2023-02-18T07:39:57;98858.75;;;-4.59;58.99
55990;BME280;41875;55.806;38.082;2023-02-18T07:42:27;98855.03;;;-4.37;58.84
55990;BME280;41875;55.806;38.082;2023-02-18T07:44:56;98861.06;;;-4.21;57.87
55990;BME280;41875;55.806;38.082;2023-02-18T07:47:24;98838.03;;;-3.61;57.71
55990;BME280;41875;55.806;38.082;2023-02-18T07:49:52;98842.69;;;-4.48;58.79
55990;BME280;41875;55.806;38.082;2023-02-18T07:52:20;98825.53;;;-3.69;57.48
55990;BME280;41875;55.806;38.082;2023-02-18T07:54:49;98829.13;;;-3.41;56.29
55990;BME280;41875;55.806;38.082;2023-02-18T07:57:17;98830.25;;;-3.61;56.73
55990;BME280;41875;55.806;38.082;2023-02-18T07:59:47;98812.84;;;-3.43;55.88
55990;BME280;41875;55.806;38.082;2023-02-18T08:02:18;98808.81;;;-3.63;57.19
55990;BME280;41875;55.806;38.082;2023-02-18T08:04:47;98814.25;;;-3.38;56.53
55990;BME280;41875;55.806;38.082;2023-02-18T08:07:17;98817.78;;;-3.24;56.18
55990;BME280;41875;55.806;38.082;2023-02-18T08:09:49;98811.28;;;-3.46;56.55
55990;BME280;41875;55.806;38.082;2023-02-18T08:12:18;98797.16;;;-2.95;56.49
55990;BME280;41875;55.806;38.082;2023-02-18T08:14:47;98797.06;;;-2.79;55.59
55990;BME280;41875;55.806;38.082;2023-02-18T08:17:17;98788.56;;;-3.87;59.09
55990;BME280;41875;55.806;38.082;2023-02-18T08:19:45;98790.59;;;-3.31;57.85
55990;BME280;41875;55.806;38.082;2023-02-18T08:22:13;98786.16;;;-3.29;55.93
55990;BME280;41875;55.806;38.082;2023-02-18T08:24:41;98772.94;;;-3.25;56.59
55990;BME280;41875;55.806;38.082;2023-02-18T08:27:10;98784.56;;;-2.87;55.58
55990;BME280;41875;55.806;38.082;2023-02-18T08:29:39;98749.44;;;-3.36;56.74
55990;BME280;41875;55.806;38.082;2023-02-18T08:32:08;98746.59;;;-3.17;56.87
55990;BME280;41875;55.806;38.082;2023-02-18T08:34:37;98744.69;;;-3.44;57.29
55990;BME280;41875;55.806;38.082;2023-02-18T08:37:05;98752.38;;;-3.42;57.25
55990;BME280;41875;55.806;38.082;2023-02-18T08:39:34;98747.16;;;-2.97;55.83
55990;BME280;41875;55.806;38.082;2023-02-18T08:42:05;98750.50;;;-2.66;55.26
55990;BME280;41875;55.806;38.082;2023-02-18T08:44:34;98738.09;;;-3.04;56.57
55990;BME280;41875;55.806;38.082;2023-02-18T08:47:03;98737.91;;;-2.72;55.93
55990;BME280;41875;55.806;38.082;2023-02-18T08:49:53;98726.50;;;-3.13;56.25
55990;BME280;41875;55.806;38.082;2023-02-18T08:52:22;98731.41;;;-3.09;56.27
55990;BME280;41875;55.806;38.082;2023-02-18T08:54:50;98732.25;;;-2.65;55.12
55990;BME280;41875;55.806;38.082;2023-02-18T08:57:18;98711.44;;;-3.07;56.98
55990;BME280;41875;55.806;38.082;2023-02-18T08:59:47;98721.31;;;-2.84;55.87
55990;BME280;41875;55.806;38.082;2023-02-18T09:02:16;98711.53;;;-3.08;55.74
55990;BME280;41875;55.806;38.082;2023-02-18T09:04:44;98708.00;;;-2.93;56.09
55990;BME280;41875;55.806;38.082;2023-02-18T09:07:14;98712.78;;;-2.57;54.79
55990;BME280;41875;55.806;38.082;2023-02-18T09:09:42;98705.47;;;-2.23;53.39
55990;BME280;41875;55.806;38.082;2023-02-18T09:12:11;98693.09;;;-2.33;54.94
55990;BME280;41875;55.806;38.082;2023-02-18T09:14:39;98701.06;;;-2.92;56.09
55990;BME280;41875;55.806;38.082;2023-02-18T09:17:08;98689.69;;;-2.89;55.21
55990;BME280;41875;55.806;38.082;2023-02-18T09:19:36;98690.25;;;-2.42;53.45
55990;BME280;41875;55.806;38.082;2023-02-18T09:22:04;98649.81;;;-3.16;55.31
55990;BME280;41875;55.806;38.082;2023-02-18T09:24:37;98682.94;;;-2.50;54.92
55990;BME280;41875;55.806;38.082;2023-02-18T09:27:05;98652.13;;;-2.55;54.13
55990;BME280;41875;55.806;38.082;2023-02-18T09:29:38;98647.53;;;-1.84;52.15
55990;BME280;41875;55.806;38.082;2023-02-18T09:32:08;98648.09;;;-1.52;50.88
55990;BME280;41875;55.806;38.082;2023-02-18T09:34:46;98663.88;;;-1.04;50.45
55990;BME280;41875;55.806;38.082;2023-02-18T09:37:14;98630.44;;;-1.60;51.04
55990;BME280;41875;55.806;38.082;2023-02-18T09:39:44;98622.38;;;-2.09;52.17
55990;BME280;41875;55.806;38.082;2023-02-18T09:42:16;98612.22;;;-2.12;53.05
55990;BME280;41875;55.806;38.082;2023-02-18T09:44:48;98629.66;;;-2.41;53.78
55990;BME280;41875;55.806;38.082;2023-02-18T09:47:22;98640.22;;;-2.45;53.72
55990;BME280;41875;55.806;38.082;2023-02-18T09:49:56;98636.78;;;-2.18;52.40
55990;BME280;41875;55.806;38.082;2023-02-18T09:52:29;98622.09;;;-1.65;52.20
55990;BME280;41875;55.806;38.082;2023-02-18T09:55:00;98606.78;;;-2.22;52.77
55990;BME280;41875;55.806;38.082;2023-02-18T09:57:37;98601.34;;;-1.78;52.57
55990;BME280;41875;55.806;38.082;2023-02-18T10:00:13;98604.38;;;-1.72;51.90
55990;BME280;41875;55.806;38.082;2023-02-18T10:02:52;98620.50;;;-2.07;52.66
55990;BME280;41875;55.806;38.082;2023-02-18T10:05:22;98621.38;;;-1.55;51.90
55990;BME280;41875;55.806;38.082;2023-02-18T10:08:03;98597.91;;;-1.79;52.05
55990;BME280;41875;55.806;38.082;2023-02-18T10:10:40;98611.91;;;-1.94;51.99
55990;BME280;41875;55.806;38.082;2023-02-18T10:13:12;98605.31;;;-0.97;50.40
55990;BME280;41875;55.806;38.082;2023-02-18T10:15:42;98589.53;;;-1.06;50.56
55990;BME280;41875;55.806;38.082;2023-02-18T10:18:24;98605.16;;;-0.82;49.59
55990;BME280;41875;55.806;38.082;2023-02-18T10:21:00;98585.00;;;-0.79;48.98
55990;BME280;41875;55.806;38.082;2023-02-18T10:23:32;98564.69;;;-1.11;49.90
55990;BME280;41875;55.806;38.082;2023-02-18T10:26:05;98586.31;;;-0.73;48.96
55990;BME280;41875;55.806;38.082;2023-02-18T10:28:37;98580.53;;;-0.89;48.78
55990;BME280;41875;55.806;38.082;2023-02-18T10:31:06;98575.91;;;-0.49;49.50
55990;BME280;41875;55.806;38.082;2023-02-18T10:33:43;98560.41;;;-0.99;49.07
55990;BME280;41875;55.806;38.082;2023-02-18T10:36:22;98554.81;;;-0.81;50.24
55990;BME280;41875;55.806;38.082;2023-02-18T10:39:09;98559.03;;;-0.67;48.68
55990;BME280;41875;55.806;38.082;2023-02-18T10:41:50;98543.22;;;-0.88;48.98
55990;BME280;41875;55.806;38.082;2023-02-18T10:44:29;98524.88;;;-0.87;49.32
55990;BME280;41875;55.806;38.082;2023-02-18T10:47:06;98516.69;;;-1.55;50.61
55990;BME280;41875;55.806;38.082;2023-02-18T10:50:04;98518.63;;;-1.46;50.73
55990;BME280;41875;55.806;38.082;2023-02-18T10:52:39;98528.00;;;-1.56;51.10
55990;BME280;41875;55.806;38.082;2023-02-18T10:55:09;98521.81;;;-1.29;49.92
55990;BME280;41875;55.806;38.082;2023-02-18T10:57:48;98513.66;;;-1.12;49.66
55990;BME280;41875;55.806;38.082;2023-02-18T11:00:19;98524.28;;;-0.90;49.67
55990;BME280;41875;55.806;38.082;2023-02-18T11:03:12;98514.94;;;-1.67;50.24
55990;BME280;41875;55.806;38.082;2023-02-18T11:05:44;98505.50;;;-1.69;49.93
55990;BME280;41875;55.806;38.082;2023-02-18T11:08:17;98508.09;;;-1.31;49.28
55990;BME280;41875;55.806;38.082;2023-02-18T11:10:48;98485.22;;;-1.63;50.91
55990;BME280;41875;55.806;38.082;2023-02-18T11:13:24;98490.13;;;-1.72;51.17
55990;BME280;41875;55.806;38.082;2023-02-18T11:15:57;98489.66;;;-1.52;50.50
55990;BME280;41875;55.806;38.082;2023-02-18T11:18:31;98486.03;;;-0.77;48.60
55990;BME280;41875;55.806;38.082;2023-02-18T11:21:03;98506.09;;;-0.90;49.28
55990;BME280;41875;55.806;38.082;2023-02-18T11:23:45;98472.19;;;-0.53;48.72
55990;BME280;41875;55.806;38.082;2023-02-18T11:26:15;98475.72;;;-1.39;50.01
55990;BME280;41875;55.806;38.082;2023-02-18T11:28:50;98480.78;;;-0.64;48.68
55990;BME280;41875;55.806;38.082;2023-02-18T11:31:25;98476.97;;;-0.96;48.80
55990;BME280;41875;55.806;38.082;2023-02-18T11:33:56;98478.59;;;-1.06;49.44
55990;BME280;41875;55.806;38.082;2023-02-18T11:36:29;98463.91;;;-0.47;48.51
55990;BME280;41875;55.806;38.082;2023-02-18T11:39:00;98466.72;;;-0.62;48.62
55990;BME280;41875;55.806;38.082;2023-02-18T11:41:34;98460.28;;;-0.33;47.93
55990;BME280;41875;55.806;38.082;2023-02-18T11:44:07;98452.59;;;-0.82;48.97
55990;BME280;41875;55.806;38.082;2023-02-18T11:46:56;98461.00;;;-0.67;48.98
55990;BME280;41875;55.806;38.082;2023-02-18T11:49:27;98455.50;;;-0.51;47.74
55990;BME280;41875;55.806;38.082;2023-02-18T11:52:04;98453.75;;;-0.86;48.46
55990;BME280;41875;55.806;38.082;2023-02-18T11:54:33;98465.25;;;-1.01;49.28
55990;BME280;41875;55.806;38.082;2023-02-18T11:57:04;98457.75;;;-0.57;48.95
55990;BME280;41875;55.806;38.082;2023-02-18T11:59:37;98451.69;;;-0.69;49.09
55990;BME280;41875;55.806;38.082;2023-02-18T12:02:21;98425.03;;;-0.14;47.33
55990;BME280;41875;55.806;38.082;2023-02-18T12:05:00;98435.69;;;-0.06;46.96
55990;BME280;41875;55.806;38.082;2023-02-18T12:07:38;98432.69;;;-0.36;48.47
55990;BME280;41875;55.806;38.082;2023-02-18T12:10:13;98419.41;;;-1.02;49.28
55990;BME280;41875;55.806;38.082;2023-02-18T12:12:45;98429.34;;;-0.72;48.53
55990;BME280;41875;55.806;38.082;2023-02-18T12:15:23;98428.88;;;-1.01;49.24
55990;BME280;41875;55.806;38.082;2023-02-18T12:18:03;98420.78;;;-0.85;49.79
55990;BME280;41875;55.806;38.082;2023-02-18T12:21:14;98407.06;;;-0.87;48.90
55990;BME280;41875;55.806;38.082;2023-02-18T12:23:48;98409.16;;;-1.28;50.28
55990;BME280;41875;55.806;38.082;2023-02-18T12:26:23;98429.03;;;-1.40;50.65
55990;BME280;41875;55.806;38.082;2023-02-18T12:29:04;98412.97;;;-1.45;50.16
55990;BME280;41875;55.806;38.082;2023-02-18T12:32:09;98407.88;;;-1.47;50.53
55990;BME280;41875;55.806;38.082;2023-02-18T12:34:51;98404.66;;;-1.88;51.73
55990;BME280;41875;55.806;38.082;2023-02-18T12:37:56;98406.44;;;-1.51;51.31
55990;BME280;41875;55.806;38.082;2023-02-18T12:40:40;98409.75;;;-0.89;49.62
55990;BME280;41875;55.806;38.082;2023-02-18T12:43:19;98390.44;;;-1.58;51.26
55990;BME280;41875;55.806;38.082;2023-02-18T12:46:12;98404.16;;;-1.56;51.00
55990;BME280;41875;55.806;38.082;2023-02-18T12:48:58;98395.00;;;-1.86;51.67
55990;BME280;41875;55.806;38.082;2023-02-18T12:51:44;98376.38;;;-2.04;51.90
55990;BME280;41875;55.806;38.082;2023-02-18T12:54:32;98375.56;;;-2.04;51.71
55990;BME280;41875;55.806;38.082;2023-02-18T13:03:01;98352.38;;;-2.57;52.65
55990;BME280;41875;55.806;38.082;2023-02-18T13:05:41;98358.81;;;-2.76;53.62
55990;BME280;41875;55.806;38.082;2023-02-18T13:08:33;98375.78;;;-2.20;52.97
55990;BME280;41875;55.806;38.082;2023-02-18T13:11:15;98363.44;;;-2.55;53.08
55990;BME280;41875;55.806;38.082;2023-02-18T13:13:53;98366.53;;;-2.24;52.24
55990;BME280;41875;55.806;38.082;2023-02-18T13:16:25;98363.25;;;-2.78;53.69
55990;BME280;41875;55.806;38.082;2023-02-18T13:18:59;98352.06;;;-2.53;53.63
55990;BME280;41875;55.806;38.082;2023-02-18T13:21:31;98357.94;;;-2.38;53.29
55990;BME280;41875;55.806;38.082;2023-02-18T13:24:02;98346.97;;;-2.54;53.34
55990;BME280;41875;55.806;38.082;2023-02-18T13:26:32;98358.38;;;-2.44;53.49
55990;BME280;41875;55.806;38.082;2023-02-18T13:29:14;98353.72;;;-2.52;53.65
55990;BME280;41875;55.806;38.082;2023-02-18T13:32:00;98357.22;;;-2.27;53.21
55990;BME280;41875;55.806;38.082;2023-02-18T13:34:36;98339.66;;;-2.23;52.47